sensor_id;sensor_type;location;lat;lon;timestamp;pressure;altitude;pressure_sealevel;temperature;humidity
15750;BME280;7976;52.526;13.326;2022-12-10T00:02:14;100471.72;;;1.04;84.57
15750;BME280;7976;52.526;13.326;2022-12-10T00:04:42;100467.41;;;1.06;84.55
15750;BME280;7976;52.526;13.326;2022-12-10T00:07:09;100476.84;;;1.12;84.55
15750;BME280;7976;52.526;13.326;2022-12-10T00:09:36;100477.69;;;1.17;84.20
15750;BME280;7976;52.526;13.326;2022-12-10T00:12:03;100476.81;;;1.18;84.27
15750;BME280;7976;52.526;13.326;2022-12-10T00:14:30;100469.97;;;1.15;84.30
15750;BME280;7976;52.526;13.326;2022-12-10T00:16:58;100476.00;;;1.10;84.10
15750;BME280;7976;52.526;13.326;2022-12-10T00:19:24;100477.69;;;1.11;84.20
15750;BME280;7976;52.526;13.326;2022-12-10T00:21:52;100473.44;;;1.02;83.67
15750;BME280;7976;52.526;13.326;2022-12-10T00:24:19;100466.59;;;0.89;84.11
15750;BME280;7976;52.526;13.326;2022-12-10T00:26:46;100470.91;;;0.87;84.46
15750;BME280;7976;52.526;13.326;2022-12-10T00:29:13;100473.47;;;0.93;84.53
15750;BME280;7976;52.526;13.326;2022-12-10T00:31:40;100472.59;;;0.96;84.63
15750;BME280;7976;52.526;13.326;2022-12-10T00:34:10;100470.88;;;0.96;84.19
15750;BME280;7976;52.526;13.326;2022-12-10T00:36:42;100478.56;;;1.02;84.39
15750;BME280;7976;52.526;13.326;2022-12-10T00:39:13;100474.28;;;1.04;84.33
15750;BME280;7976;52.526;13.326;2022-12-10T00:41:41;100486.31;;;1.02;83.78
15750;BME280;7976;52.526;13.326;2022-12-10T00:44:09;100486.31;;;0.98;83.79
15750;BME280;7976;52.526;13.326;2022-12-10T00:46:37;100479.47;;;0.97;83.87
15750;BME280;7976;52.526;13.326;2022-12-10T00:49:04;100482.91;;;0.94;84.24
15750;BME280;7976;52.526;13.326;2022-12-10T00:51:31;100485.44;;;0.99;84.22
15750;BME280;7976;52.526;13.326;2022-12-10T00:53:59;100487.19;;;0.98;84.08
15750;BME280;7976;52.526;13.326;2022-12-10T00:56:30;100488.03;;;0.99;84.31
15750;BME280;7976;52.526;13.326;2022-12-10T00:59:00;100485.47;;;0.94;84.15
15750;BME280;7976;52.526;13.326;2022-12-10T01:01:29;100483.78;;;0.92;83.87
15750;BME280;7976;52.526;13.326;2022-12-10T01:04:00;100481.22;;;0.81;84.05
15750;BME280;7976;52.526;13.326;2022-12-10T01:06:31;100478.69;;;0.75;84.41
15750;BME280;7976;52.526;13.326;2022-12-10T01:09:01;100483.81;;;0.75;84.39
15750;BME280;7976;52.526;13.326;2022-12-10T01:11:33;100489.81;;;0.77;84.36
15750;BME280;7976;52.526;13.326;2022-12-10T01:14:01;100488.06;;;0.81;84.55
15750;BME280;7976;52.526;13.326;2022-12-10T01:16:28;100484.66;;;0.79;84.58
15750;BME280;7976;52.526;13.326;2022-12-10T01:18:57;100480.34;;;0.81;84.51
15750;BME280;7976;52.526;13.326;2022-12-10T01:21:27;100487.22;;;0.86;84.49
15750;BME280;7976;52.526;13.326;2022-12-10T01:23:58;100488.06;;;0.93;84.54
15750;BME280;7976;52.526;13.326;2022-12-10T01:26:28;100484.59;;;0.94;84.61
15750;BME280;7976;52.526;13.326;2022-12-10T01:28:58;100488.94;;;0.92;84.57
15750;BME280;7976;52.526;13.326;2022-12-10T01:31:28;100486.34;;;0.89;84.27
15750;BME280;7976;52.526;13.326;2022-12-10T01:33:56;100486.34;;;0.86;84.14
15750;BME280;7976;52.526;13.326;2022-12-10T01:36:29;100488.09;;;0.85;84.37
15750;BME280;7976;52.526;13.326;2022-12-10T01:38:57;100480.38;;;0.85;84.66
15750;BME280;7976;52.526;13.326;2022-12-10T01:41:26;100485.53;;;0.85;84.56
15750;BME280;7976;52.526;13.326;2022-12-10T01:43:58;100480.34;;;0.82;84.39
15750;BME280;7976;52.526;13.326;2022-12-10T01:46:27;100480.38;;;0.79;84.29
15750;BME280;7976;52.526;13.326;2022-12-10T01:48:56;100488.94;;;0.80;84.41
15750;BME280;7976;52.526;13.326;2022-12-10T01:51:27;100491.53;;;0.74;84.18
15750;BME280;7976;52.526;13.326;2022-12-10T01:53:56;100493.28;;;0.70;84.39
15750;BME280;7976;52.526;13.326;2022-12-10T01:56:24;100492.41;;;0.70;84.63
15750;BME280;7976;52.526;13.326;2022-12-10T01:58:54;100492.41;;;0.70;84.63
15750;BME280;7976;52.526;13.326;2022-12-10T02:01:31;100484.69;;;0.67;84.48
15750;BME280;7976;52.526;13.326;2022-12-10T02:04:14;100482.97;;;0.60;84.90
15750;BME280;7976;52.526;13.326;2022-12-10T02:06:54;100483.81;;;0.59;84.88
15750;BME280;7976;52.526;13.326;2022-12-10T02:09:33;100478.69;;;0.57;84.80
15750;BME280;7976;52.526;13.326;2022-12-10T02:12:11;100481.25;;;0.56;85.38
15750;BME280;7976;52.526;13.326;2022-12-10T02:14:53;100468.41;;;0.60;85.25
15750;BME280;7976;52.526;13.326;2022-12-10T02:20:08;100475.28;;;0.57;85.14
15750;BME280;7976;52.526;13.326;2022-12-10T02:22:45;100476.97;;;0.56;85.05
15750;BME280;7976;52.526;13.326;2022-12-10T02:25:15;100478.69;;;0.57;85.14
15750;BME280;7976;52.526;13.326;2022-12-10T02:27:51;100477.84;;;0.60;85.08
15750;BME280;7976;52.526;13.326;2022-12-10T02:30:21;100476.13;;;0.62;85.27
15750;BME280;7976;52.526;13.326;2022-12-10T02:32:50;100467.50;;;0.67;85.35
15750;BME280;7976;52.526;13.326;2022-12-10T02:35:26;100465.81;;;0.65;85.36
15750;BME280;7976;52.526;13.326;2022-12-10T02:38:01;100476.13;;;0.62;85.21
15750;BME280;7976;52.526;13.326;2022-12-10T02:40:33;100478.69;;;0.56;85.25
15750;BME280;7976;52.526;13.326;2022-12-10T02:43:03;100471.81;;;0.49;85.13
15750;BME280;7976;52.526;13.326;2022-12-10T02:45:34;100481.28;;;0.47;85.29
15750;BME280;7976;52.526;13.326;2022-12-10T02:48:05;100475.28;;;0.42;85.19
15750;BME280;7976;52.526;13.326;2022-12-10T02:50:38;100471.84;;;0.44;85.62
15750;BME280;7976;52.526;13.326;2022-12-10T02:53:05;100477.84;;;0.51;85.44
15750;BME280;7976;52.526;13.326;2022-12-10T02:56:02;100471.84;;;0.52;85.70
15750;BME280;7976;52.526;13.326;2022-12-10T02:58:50;100466.69;;;0.55;85.59
15750;BME280;7976;52.526;13.326;2022-12-10T03:01:33;100472.69;;;0.54;85.32
15750;BME280;7976;52.526;13.326;2022-12-10T03:04:11;100466.72;;;0.50;85.30
15750;BME280;7976;52.526;13.326;2022-12-10T03:06:46;100483.88;;;0.47;85.51
15750;BME280;7976;52.526;13.326;2022-12-10T03:09:22;100481.28;;;0.47;85.64
15750;BME280;7976;52.526;13.326;2022-12-10T03:11:58;100485.56;;;0.45;85.54
15750;BME280;7976;52.526;13.326;2022-12-10T03:14:34;100483.00;;;0.42;85.77
15750;BME280;7976;52.526;13.326;2022-12-10T03:17:05;100486.41;;;0.42;85.80
15750;BME280;7976;52.526;13.326;2022-12-10T03:19:37;100487.28;;;0.40;85.90
15750;BME280;7976;52.526;13.326;2022-12-10T03:22:53;100492.44;;;0.41;86.20
15750;BME280;7976;52.526;13.326;2022-12-10T03:30:03;100477.88;;;0.43;86.08
15750;BME280;7976;52.526;13.326;2022-12-10T03:33:02;100483.84;;;0.50;85.84
15750;BME280;7976;52.526;13.326;2022-12-10T03:36:00;100472.69;;;0.51;85.92
15750;BME280;7976;52.526;13.326;2022-12-10T03:41:54;100479.53;;;0.61;85.66
15750;BME280;7976;52.526;13.326;2022-12-10T03:48:55;100473.53;;;0.63;86.00
15750;BME280;7976;52.526;13.326;2022-12-10T03:52:16;100478.69;;;0.65;85.73
15750;BME280;7976;52.526;13.326;2022-12-10T03:56:13;100486.41;;;0.59;85.60
15750;BME280;7976;52.526;13.326;2022-12-10T03:59:27;100488.09;;;0.66;85.54
15750;BME280;7976;52.526;13.326;2022-12-10T04:02:23;100486.41;;;0.65;85.31
15750;BME280;7976;52.526;13.326;2022-12-10T04:05:15;100482.09;;;0.62;85.26
15750;BME280;7976;52.526;13.326;2022-12-10T04:08:19;100483.00;;;0.57;84.87
15750;BME280;7976;52.526;13.326;2022-12-10T04:16:47;100487.28;;;0.65;85.57
15750;BME280;7976;52.526;13.326;2022-12-10T04:20:12;100484.66;;;0.74;85.27
15750;BME280;7976;52.526;13.326;2022-12-10T04:22:53;100494.09;;;0.81;85.27
15750;BME280;7976;52.526;13.326;2022-12-10T04:25:37;100494.91;;;0.91;85.40
15750;BME280;7976;52.526;13.326;2022-12-10T04:28:22;100494.06;;;0.95;85.06
15750;BME280;7976;52.526;13.326;2022-12-10T04:30:49;100488.03;;;0.99;84.81
15750;BME280;7976;52.526;13.326;2022-12-10T04:33:16;100495.75;;;1.03;85.07
15750;BME280;7976;52.526;13.326;2022-12-10T04:35:45;100488.06;;;1.00;84.78
15750;BME280;7976;52.526;13.326;2022-12-10T04:38:12;100494.91;;;1.00;84.88
15750;BME280;7976;52.526;13.326;2022-12-10T04:40:39;100495.75;;;0.97;84.59
15750;BME280;7976;52.526;13.326;2022-12-10T04:43:05;100494.06;;;0.93;84.65
15750;BME280;7976;52.526;13.326;2022-12-10T04:45:34;100498.34;;;0.96;84.88
15750;BME280;7976;52.526;13.326;2022-12-10T04:48:02;100493.19;;;0.94;84.57
15750;BME280;7976;52.526;13.326;2022-12-10T04:50:30;100494.91;;;0.94;84.43
15750;BME280;7976;52.526;13.326;2022-12-10T04:52:58;100497.50;;;0.97;84.67
15750;BME280;7976;52.526;13.326;2022-12-10T04:55:26;100509.50;;;0.99;84.04
15750;BME280;7976;52.526;13.326;2022-12-10T04:57:53;100500.03;;;1.03;84.12
15750;BME280;7976;52.526;13.326;2022-12-10T05:00:20;100500.03;;;1.04;83.98
15750;BME280;7976;52.526;13.326;2022-12-10T05:02:49;100494.91;;;1.01;83.72
15750;BME280;7976;52.526;13.326;2022-12-10T05:05:16;100500.03;;;1.03;83.65
15750;BME280;7976;52.526;13.326;2022-12-10T05:07:43;100500.03;;;1.06;83.45
15750;BME280;7976;52.526;13.326;2022-12-10T05:10:11;100501.75;;;1.10;83.39
15750;BME280;7976;52.526;13.326;2022-12-10T05:12:38;100506.88;;;1.16;83.03
15750;BME280;7976;52.526;13.326;2022-12-10T05:15:07;100512.00;;;1.19;83.12
15750;BME280;7976;52.526;13.326;2022-12-10T05:17:34;100507.72;;;1.21;82.68
15750;BME280;7976;52.526;13.326;2022-12-10T05:20:01;100506.84;;;1.25;82.98
15750;BME280;7976;52.526;13.326;2022-12-10T05:22:28;100515.41;;;1.24;82.71
15750;BME280;7976;52.526;13.326;2022-12-10T05:25:14;100508.53;;;1.26;82.47
15750;BME280;7976;52.526;13.326;2022-12-10T05:27:41;100512.84;;;1.32;82.33
15750;BME280;7976;52.526;13.326;2022-12-10T05:30:10;100508.53;;;1.29;81.89
15750;BME280;7976;52.526;13.326;2022-12-10T05:32:37;100508.53;;;1.26;82.08
15750;BME280;7976;52.526;13.326;2022-12-10T05:35:05;100510.25;;;1.24;81.88
15750;BME280;7976;52.526;13.326;2022-12-10T05:37:33;100512.84;;;1.24;81.97
15750;BME280;7976;52.526;13.326;2022-12-10T05:40:00;100516.28;;;1.24;81.68
15750;BME280;7976;52.526;13.326;2022-12-10T05:42:28;100512.84;;;1.24;81.68
15750;BME280;7976;52.526;13.326;2022-12-10T05:44:55;100513.69;;;1.27;81.54
15750;BME280;7976;52.526;13.326;2022-12-10T05:47:22;100513.69;;;1.32;81.26
15750;BME280;7976;52.526;13.326;2022-12-10T05:49:49;100520.56;;;1.32;80.84
15750;BME280;7976;52.526;13.326;2022-12-10T05:52:15;100517.13;;;1.29;80.38
15750;BME280;7976;52.526;13.326;2022-12-10T05:54:43;100518.88;;;1.24;80.18
15750;BME280;7976;52.526;13.326;2022-12-10T05:57:10;100516.28;;;1.23;80.07
15750;BME280;7976;52.526;13.326;2022-12-10T05:59:39;100514.59;;;1.23;79.99
15750;BME280;7976;52.526;13.326;2022-12-10T06:02:05;100520.56;;;1.24;79.98
15750;BME280;7976;52.526;13.326;2022-12-10T06:04:32;100516.25;;;1.27;80.01
15750;BME280;7976;52.526;13.326;2022-12-10T06:06:59;100516.25;;;1.29;79.98
15750;BME280;7976;52.526;13.326;2022-12-10T06:09:26;100517.97;;;1.32;80.04
15750;BME280;7976;52.526;13.326;2022-12-10T06:11:53;100517.13;;;1.29;79.77
15750;BME280;7976;52.526;13.326;2022-12-10T06:14:20;100514.59;;;1.23;79.97
15750;BME280;7976;52.526;13.326;2022-12-10T06:16:48;100512.84;;;1.22;79.99
15750;BME280;7976;52.526;13.326;2022-12-10T06:19:15;100516.31;;;1.21;79.76
15750;BME280;7976;52.526;13.326;2022-12-10T06:21:41;100523.16;;;1.21;80.09
15750;BME280;7976;52.526;13.326;2022-12-10T06:24:08;100514.56;;;1.25;79.91
15750;BME280;7976;52.526;13.326;2022-12-10T06:26:35;100522.28;;;1.31;79.48
15750;BME280;7976;52.526;13.326;2022-12-10T06:29:02;100522.28;;;1.29;79.46
15750;BME280;7976;52.526;13.326;2022-12-10T06:31:30;100529.97;;;1.34;79.35
15750;BME280;7976;52.526;13.326;2022-12-10T06:33:58;100526.56;;;1.37;79.29
15750;BME280;7976;52.526;13.326;2022-12-10T06:36:25;100534.28;;;1.38;79.38
15750;BME280;7976;52.526;13.326;2022-12-10T06:38:52;100542.03;;;1.35;79.10
15750;BME280;7976;52.526;13.326;2022-12-10T06:41:18;100534.28;;;1.29;78.73
15750;BME280;7976;52.526;13.326;2022-12-10T06:43:47;100540.34;;;1.23;78.59
15750;BME280;7976;52.526;13.326;2022-12-10T06:46:20;100535.19;;;1.23;78.61
15750;BME280;7976;52.526;13.326;2022-12-10T06:48:47;100535.19;;;1.17;78.64
15750;BME280;7976;52.526;13.326;2022-12-10T06:51:16;100542.94;;;1.11;78.61
15750;BME280;7976;52.526;13.326;2022-12-10T06:53:44;100544.66;;;1.08;78.30
15750;BME280;7976;52.526;13.326;2022-12-10T06:56:13;100548.94;;;1.07;78.58
15750;BME280;7976;52.526;13.326;2022-12-10T06:58:41;100552.41;;;1.03;78.36
15750;BME280;7976;52.526;13.326;2022-12-10T07:01:13;100549.84;;;0.96;78.24
15750;BME280;7976;52.526;13.326;2022-12-10T07:03:41;100551.56;;;0.91;78.46
15750;BME280;7976;52.526;13.326;2022-12-10T07:06:11;100553.28;;;0.86;78.71
15750;BME280;7976;52.526;13.326;2022-12-10T07:08:39;100557.59;;;0.78;78.61
15750;BME280;7976;52.526;13.326;2022-12-10T07:11:09;100555.03;;;0.75;78.81
15750;BME280;7976;52.526;13.326;2022-12-10T07:13:36;100560.16;;;0.78;79.02
15750;BME280;7976;52.526;13.326;2022-12-10T07:16:12;100561.88;;;0.85;78.87
15750;BME280;7976;52.526;13.326;2022-12-10T07:18:39;100563.59;;;0.92;78.73
15750;BME280;7976;52.526;13.326;2022-12-10T07:21:13;100567.00;;;0.91;78.48
15750;BME280;7976;52.526;13.326;2022-12-10T07:23:42;100563.59;;;0.86;78.47
15750;BME280;7976;52.526;13.326;2022-12-10T07:26:09;100562.75;;;0.85;78.59
15750;BME280;7976;52.526;13.326;2022-12-10T07:28:36;100566.16;;;0.84;78.00
15750;BME280;7976;52.526;13.326;2022-12-10T07:31:05;100562.72;;;0.81;78.29
15750;BME280;7976;52.526;13.326;2022-12-10T07:33:32;100571.31;;;0.84;78.18
15750;BME280;7976;52.526;13.326;2022-12-10T07:36:03;100572.19;;;0.88;78.20
15750;BME280;7976;52.526;13.326;2022-12-10T07:38:30;100577.31;;;0.92;78.48
15750;BME280;7976;52.526;13.326;2022-12-10T07:41:02;100583.31;;;0.94;78.28
15750;BME280;7976;52.526;13.326;2022-12-10T07:43:29;100573.00;;;0.97;78.29
15750;BME280;7976;52.526;13.326;2022-12-10T07:46:03;100579.91;;;0.98;78.53
15750;BME280;7976;52.526;13.326;2022-12-10T07:48:31;100577.31;;;1.00;78.22
15750;BME280;7976;52.526;13.326;2022-12-10T07:50:58;100585.03;;;1.00;78.43
15750;BME280;7976;52.526;13.326;2022-12-10T07:53:24;100589.31;;;0.99;78.45
15750;BME280;7976;52.526;13.326;2022-12-10T07:55:51;100591.06;;;1.00;78.48
15750;BME280;7976;52.526;13.326;2022-12-10T07:58:20;100591.06;;;1.02;78.56
15750;BME280;7976;52.526;13.326;2022-12-10T08:00:47;100589.31;;;1.04;78.62
15750;BME280;7976;52.526;13.326;2022-12-10T08:03:13;100596.19;;;1.08;78.37
15750;BME280;7976;52.526;13.326;2022-12-10T08:05:40;100591.91;;;1.08;78.43
15750;BME280;7976;52.526;13.326;2022-12-10T08:08:07;100593.59;;;0.99;78.15
15750;BME280;7976;52.526;13.326;2022-12-10T08:10:35;100596.19;;;0.99;78.31
15750;BME280;7976;52.526;13.326;2022-12-10T08:13:03;100598.78;;;1.03;78.57
15750;BME280;7976;52.526;13.326;2022-12-10T08:15:32;100607.38;;;1.05;78.28
15750;BME280;7976;52.526;13.326;2022-12-10T08:17:59;100595.31;;;1.07;78.37
15750;BME280;7976;52.526;13.326;2022-12-10T08:20:26;100598.75;;;1.12;78.44
15750;BME280;7976;52.526;13.326;2022-12-10T08:22:53;100608.19;;;1.18;78.59
15750;BME280;7976;52.526;13.326;2022-12-10T08:25:20;100610.75;;;1.22;78.28
15750;BME280;7976;52.526;13.326;2022-12-10T08:27:47;100611.63;;;1.20;78.40
15750;BME280;7976;52.526;13.326;2022-12-10T08:30:13;100612.50;;;1.20;78.24
15750;BME280;7976;52.526;13.326;2022-12-10T08:32:41;100616.75;;;1.23;78.52
15750;BME280;7976;52.526;13.326;2022-12-10T08:35:08;100609.03;;;1.21;78.38
15750;BME280;7976;52.526;13.326;2022-12-10T08:37:35;100619.34;;;1.18;78.21
15750;BME280;7976;52.526;13.326;2022-12-10T08:40:04;100614.19;;;1.14;78.40
15750;BME280;7976;52.526;13.326;2022-12-10T08:42:31;100616.78;;;1.11;78.31
15750;BME280;7976;52.526;13.326;2022-12-10T08:44:58;100615.91;;;1.16;78.46
15750;BME280;7976;52.526;13.326;2022-12-10T08:47:25;100621.94;;;1.20;78.22
15750;BME280;7976;52.526;13.326;2022-12-10T08:49:53;100618.50;;;1.25;78.21
15750;BME280;7976;52.526;13.326;2022-12-10T08:52:19;100623.66;;;1.27;78.19
15750;BME280;7976;52.526;13.326;2022-12-10T08:54:46;100626.22;;;1.25;77.95
15750;BME280;7976;52.526;13.326;2022-12-10T08:57:13;100625.34;;;1.19;77.86
15750;BME280;7976;52.526;13.326;2022-12-10T08:59:40;100627.06;;;1.14;78.17
15750;BME280;7976;52.526;13.326;2022-12-10T09:02:10;100627.94;;;1.16;78.50
15750;BME280;7976;52.526;13.326;2022-12-10T09:04:37;100631.38;;;1.18;77.92
15750;BME280;7976;52.526;13.326;2022-12-10T09:07:08;100626.22;;;1.21;78.08
15750;BME280;7976;52.526;13.326;2022-12-10T09:09:35;100633.94;;;1.24;78.08
15750;BME280;7976;52.526;13.326;2022-12-10T09:12:02;100628.78;;;1.27;78.16
15750;BME280;7976;52.526;13.326;2022-12-10T09:14:29;100629.66;;;1.31;78.15
15750;BME280;7976;52.526;13.326;2022-12-10T09:16:56;100634.78;;;1.35;78.00
15750;BME280;7976;52.526;13.326;2022-12-10T09:19:23;100636.50;;;1.41;78.16
15750;BME280;7976;52.526;13.326;2022-12-10T09:21:50;100639.91;;;1.43;77.95
15750;BME280;7976;52.526;13.326;2022-12-10T09:24:18;100640.78;;;1.40;77.87
15750;BME280;7976;52.526;13.326;2022-12-10T09:26:45;100634.78;;;1.38;77.94
15750;BME280;7976;52.526;13.326;2022-12-10T09:29:13;100633.06;;;1.37;78.10
15750;BME280;7976;52.526;13.326;2022-12-10T09:31:40;100640.78;;;1.40;78.12
15750;BME280;7976;52.526;13.326;2022-12-10T09:34:07;100629.59;;;1.47;78.10
15750;BME280;7976;52.526;13.326;2022-12-10T09:36:34;100636.44;;;1.53;78.02
15750;BME280;7976;52.526;13.326;2022-12-10T09:39:01;100634.75;;;1.52;77.81
15750;BME280;7976;52.526;13.326;2022-12-10T09:42:08;100634.75;;;1.49;78.26
15750;BME280;7976;52.526;13.326;2022-12-10T09:44:52;100632.16;;;1.44;78.07
15750;BME280;7976;52.526;13.326;2022-12-10T09:47:30;100622.75;;;1.42;78.14
15750;BME280;7976;52.526;13.326;2022-12-10T09:50:11;100642.50;;;1.41;78.27
15750;BME280;7976;52.526;13.326;2022-12-10T09:52:43;100627.00;;;1.44;78.45
15750;BME280;7976;52.526;13.326;2022-12-10T09:55:18;100632.16;;;1.50;78.20
15750;BME280;7976;52.526;13.326;2022-12-10T09:57:50;100631.31;;;1.56;78.16
15750;BME280;7976;52.526;13.326;2022-12-10T10:00:23;100627.88;;;1.55;78.20
15750;BME280;7976;52.526;13.326;2022-12-10T10:02:56;100629.59;;;1.50;78.16
15750;BME280;7976;52.526;13.326;2022-12-10T10:05:28;100627.84;;;1.49;78.30
15750;BME280;7976;52.526;13.326;2022-12-10T10:08:01;100621.84;;;1.53;78.39
15750;BME280;7976;52.526;13.326;2022-12-10T10:10:32;100633.00;;;1.49;78.43
15750;BME280;7976;52.526;13.326;2022-12-10T10:13:14;100627.03;;;1.46;78.54
15750;BME280;7976;52.526;13.326;2022-12-10T10:15:44;100642.47;;;1.44;78.76
15750;BME280;7976;52.526;13.326;2022-12-10T10:18:21;100638.19;;;1.43;78.66
15750;BME280;7976;52.526;13.326;2022-12-10T10:20:50;100636.47;;;1.48;78.53
15750;BME280;7976;52.526;13.326;2022-12-10T10:23:17;100634.72;;;1.56;78.55
15750;BME280;7976;52.526;13.326;2022-12-10T10:25:45;100641.56;;;1.66;78.81
15750;BME280;7976;52.526;13.326;2022-12-10T10:28:19;100638.13;;;1.69;78.18
15750;BME280;7976;52.526;13.326;2022-12-10T10:30:48;100631.25;;;1.65;78.24
15750;BME280;7976;52.526;13.326;2022-12-10T10:33:17;100622.69;;;1.67;78.43
15750;BME280;7976;52.526;13.326;2022-12-10T10:35:48;100628.69;;;1.63;78.49
15750;BME280;7976;52.526;13.326;2022-12-10T10:38:20;100629.56;;;1.59;78.80
15750;BME280;7976;52.526;13.326;2022-12-10T10:40:52;100621.81;;;1.65;78.93
15750;BME280;7976;52.526;13.326;2022-12-10T10:43:25;100614.09;;;1.65;78.86
15750;BME280;7976;52.526;13.326;2022-12-10T10:45:58;100616.66;;;1.64;78.67
15750;BME280;7976;52.526;13.326;2022-12-10T10:48:28;100612.34;;;1.63;78.79
15750;BME280;7976;52.526;13.326;2022-12-10T10:51:06;100602.06;;;1.67;79.16
15750;BME280;7976;52.526;13.326;2022-12-10T10:53:41;100609.72;;;1.76;79.23
15750;BME280;7976;52.526;13.326;2022-12-10T10:56:12;100601.97;;;1.79;79.05
15750;BME280;7976;52.526;13.326;2022-12-10T10:59:02;100595.06;;;1.84;78.90
15750;BME280;7976;52.526;13.326;2022-12-10T11:01:45;100594.22;;;1.85;78.55
15750;BME280;7976;52.526;13.326;2022-12-10T11:04:15;100592.50;;;1.84;78.83
15750;BME280;7976;52.526;13.326;2022-12-10T11:06:44;100598.50;;;1.86;78.95
15750;BME280;7976;52.526;13.326;2022-12-10T11:09:20;100593.41;;;1.80;78.63
15750;BME280;7976;52.526;13.326;2022-12-10T11:11:51;100604.56;;;1.79;79.10
15750;BME280;7976;52.526;13.326;2022-12-10T11:14:29;100607.13;;;1.87;79.38
15750;BME280;7976;52.526;13.326;2022-12-10T11:17:11;100597.63;;;1.92;79.08
15750;BME280;7976;52.526;13.326;2022-12-10T11:19:44;100600.22;;;1.90;79.01
15750;BME280;7976;52.526;13.326;2022-12-10T11:22:22;100598.50;;;1.94;78.94
15750;BME280;7976;52.526;13.326;2022-12-10T11:24:50;100600.19;;;1.95;78.76
15750;BME280;7976;52.526;13.326;2022-12-10T11:27:37;100597.66;;;1.90;78.81
15750;BME280;7976;52.526;13.326;2022-12-10T11:30:13;100595.94;;;1.83;78.67
15750;BME280;7976;52.526;13.326;2022-12-10T11:33:20;100594.25;;;1.82;78.84
15750;BME280;7976;52.526;13.326;2022-12-10T11:36:00;100597.66;;;1.87;78.73
15750;BME280;7976;52.526;13.326;2022-12-10T11:38:45;100590.75;;;1.89;78.61
15750;BME280;7976;52.526;13.326;2022-12-10T11:41:24;100590.78;;;1.91;78.79
15750;BME280;7976;52.526;13.326;2022-12-10T11:44:13;100596.75;;;1.94;78.83
15750;BME280;7976;52.526;13.326;2022-12-10T11:47:08;100601.00;;;2.03;78.53
15750;BME280;7976;52.526;13.326;2022-12-10T11:49:56;100596.69;;;2.06;78.26
15750;BME280;7976;52.526;13.326;2022-12-10T11:52:43;100593.28;;;2.03;78.23
15750;BME280;7976;52.526;13.326;2022-12-10T11:55:27;100592.44;;;2.01;78.28
15750;BME280;7976;52.526;13.326;2022-12-10T11:58:21;100594.16;;;2.00;78.15
15750;BME280;7976;52.526;13.326;2022-12-10T12:01:00;100597.59;;;1.99;78.42
15750;BME280;7976;52.526;13.326;2022-12-10T12:04:10;100598.53;;;1.83;78.40
15750;BME280;7976;52.526;13.326;2022-12-10T12:06:58;100596.00;;;1.71;78.59
15750;BME280;7976;52.526;13.326;2022-12-10T12:09:43;100599.47;;;1.69;79.19
15750;BME280;7976;52.526;13.326;2022-12-10T12:12:27;100602.00;;;1.73;79.17
15750;BME280;7976;52.526;13.326;2022-12-10T12:15:03;100600.31;;;1.72;79.47
15750;BME280;7976;52.526;13.326;2022-12-10T12:17:35;100604.59;;;1.70;79.24
15750;BME280;7976;52.526;13.326;2022-12-10T12:20:17;100610.63;;;1.68;79.26
15750;BME280;7976;52.526;13.326;2022-12-10T12:22:49;100605.47;;;1.72;79.70
15750;BME280;7976;52.526;13.326;2022-12-10T12:25:23;100612.28;;;1.79;79.84
15750;BME280;7976;52.526;13.326;2022-12-10T12:28:03;100611.44;;;1.80;79.54
15750;BME280;7976;52.526;13.326;2022-12-10T12:30:33;100607.16;;;1.76;79.36
15750;BME280;7976;52.526;13.326;2022-12-10T12:33:10;100608.03;;;1.75;79.90
15750;BME280;7976;52.526;13.326;2022-12-10T12:35:45;100608.88;;;1.77;79.56
15750;BME280;7976;52.526;13.326;2022-12-10T12:38:27;100610.56;;;1.81;79.28
15750;BME280;7976;52.526;13.326;2022-12-10T12:41:02;100611.44;;;1.80;79.36
15750;BME280;7976;52.526;13.326;2022-12-10T12:43:42;100604.59;;;1.70;79.24
15750;BME280;7976;52.526;13.326;2022-12-10T12:46:16;100619.22;;;1.67;79.35
15750;BME280;7976;52.526;13.326;2022-12-10T12:48:58;100607.19;;;1.72;79.64
15750;BME280;7976;52.526;13.326;2022-12-10T12:51:40;100605.47;;;1.72;79.60
15750;BME280;7976;52.526;13.326;2022-12-10T12:54:11;100608.06;;;1.72;79.67
15750;BME280;7976;52.526;13.326;2022-12-10T12:57:06;100611.47;;;1.77;79.99
15750;BME280;7976;52.526;13.326;2022-12-10T13:00:01;100604.56;;;1.81;79.61
15750;BME280;7976;52.526;13.326;2022-12-10T13:02:53;100603.72;;;1.79;79.59
15750;BME280;7976;52.526;13.326;2022-12-10T13:05:34;100607.13;;;1.79;79.24
15750;BME280;7976;52.526;13.326;2022-12-10T13:08:28;100610.59;;;1.78;79.13
15750;BME280;7976;52.526;13.326;2022-12-10T13:11:28;100613.16;;;1.78;79.00
15750;BME280;7976;52.526;13.326;2022-12-10T13:14:28;100616.59;;;1.74;79.04
15750;BME280;7976;52.526;13.326;2022-12-10T13:17:27;100621.75;;;1.80;78.88
15750;BME280;7976;52.526;13.326;2022-12-10T13:20:44;100627.78;;;1.76;78.77
15750;BME280;7976;52.526;13.326;2022-12-10T13:36:08;100633.03;;;1.54;78.96
15750;BME280;7976;52.526;13.326;2022-12-10T13:39:35;100637.31;;;1.50;78.85
15750;BME280;7976;52.526;13.326;2022-12-10T13:43:20;100638.19;;;1.42;79.07
15750;BME280;7976;52.526;13.326;2022-12-10T14:26:36;100650.16;;;1.76;78.84
15750;BME280;7976;52.526;13.326;2022-12-10T14:34:27;100635.50;;;1.76;78.94
15750;BME280;7976;52.526;13.326;2022-12-10T14:37:03;100647.56;;;1.71;78.77
15750;BME280;7976;52.526;13.326;2022-12-10T14:39:33;100654.44;;;1.69;78.76
15750;BME280;7976;52.526;13.326;2022-12-10T14:42:05;100645.03;;;1.64;78.64
15750;BME280;7976;52.526;13.326;2022-12-10T14:44:38;100647.59;;;1.56;78.99
15750;BME280;7976;52.526;13.326;2022-12-10T14:47:18;100646.75;;;1.54;79.08
15750;BME280;7976;52.526;13.326;2022-12-10T14:49:48;100657.91;;;1.56;79.19
15750;BME280;7976;52.526;13.326;2022-12-10T14:52:19;100655.31;;;1.59;79.21
15750;BME280;7976;52.526;13.326;2022-12-10T14:54:53;100652.78;;;1.62;79.17
15750;BME280;7976;52.526;13.326;2022-12-10T14:57:30;100670.78;;;1.59;79.02